Time;durP1;ratioP1;P1;durP2;ratioP2;P2;SDS_P1;SDS_P2;PMS_P1;PMS_P2;Temp;Humidity;BMP_temperature;BMP_pressure;BME280_temperature;BME280_humidity;BME280_pressure;Samples;Min_cycle;Max_cycle;Signal;HPM_P1;HPM_P2
2023/06/28 00:00:13;;;;;;;0.10;0.10;;;;;;;;;;7373541;19;20153;-70
2023/06/28 00:02:50;;;;;;;0.07;0.07;;;;;;;;;;7373917;19;20227;-70
2023/06/28 00:05:19;;;;;;;0.00;0.00;;;;;;;;;;7374233;19;20549;-73
2023/06/28 00:07:48;;;;;;;0.00;0.00;;;;;;;;;;7362563;19;20169;-71
2023/06/28 00:10:17;;;;;;;0.00;0.00;;;;;;;;;;7376353;19;20156;-73
2023/06/28 00:12:46;;;;;;;0.10;0.10;;;;;;;;;;7374003;19;20180;-71
2023/06/28 00:15:15;;;;;;;0.00;0.00;;;;;;;;;;7374178;19;20152;-73
2023/06/28 00:17:44;;;;;;;0.00;0.00;;;;;;;;;;7371726;19;20192;-72
2023/06/28 00:20:16;;;;;;;0.00;0.00;;;;;;;;;;7374050;19;20198;-71
2023/06/28 00:22:45;;;;;;;0.00;0.00;;;;;;;;;;7372986;19;20184;-72
2023/06/28 00:25:14;;;;;;;0.03;0.03;;;;;;;;;;7371199;19;20141;-72
2023/06/28 00:27:43;;;;;;;0.10;0.10;;;;;;;;;;7373190;19;20152;-70
2023/06/28 00:30:13;;;;;;;0.10;0.10;;;;;;;;;;7372267;19;20149;-71
2023/06/28 00:32:42;;;;;;;0.00;0.00;;;;;;;;;;7372095;19;20208;-70
2023/06/28 00:35:11;;;;;;;0.10;0.10;;;;;;;;;;7371277;19;20148;-73
2023/06/28 00:37:44;;;;;;;0.00;0.00;;;;;;;;;;7371399;19;20562;-70
2023/06/28 00:40:14;;;;;;;0.00;0.00;;;;;;;;;;7372361;19;20156;-72
2023/06/28 00:42:42;;;;;;;0.10;0.10;;;;;;;;;;7371926;19;20188;-72
2023/06/28 00:45:15;;;;;;;0.10;0.10;;;;;;;;;;7372894;19;20153;-71
2023/06/28 00:47:45;;;;;;;0.00;0.00;;;;;;;;;;7373544;19;20152;-70
2023/06/28 00:50:14;;;;;;;0.00;0.00;;;;;;;;;;7372189;19;20149;-71
2023/06/28 00:52:46;;;;;;;0.00;0.00;;;;;;;;;;7372097;19;20176;-72
2023/06/28 00:55:15;;;;;;;0.10;0.10;;;;;;;;;;7370788;19;20152;-70
2023/06/28 00:57:44;;;;;;;0.00;0.00;;;;;;;;;;7373736;19;20160;-72
2023/06/28 01:00:16;;;;;;;0.00;0.00;;;;;;;;;;7373171;19;20195;-71
2023/06/28 01:02:45;;;;;;;0.10;0.10;;;;;;;;;;7372812;19;20208;-71
2023/06/28 01:05:14;;;;;;;0.00;0.00;;;;;;;;;;7370806;19;20161;-72
2023/06/28 01:07:47;;;;;;;0.10;0.10;;;;;;;;;;7371494;19;20231;-71
2023/06/28 01:10:17;;;;;;;0.00;0.00;;;;;;;;;;7371798;19;20204;-71
2023/06/28 01:12:47;;;;;;;0.00;0.00;;;;;;;;;;7369369;19;20252;-71
2023/06/28 01:15:16;;;;;;;0.00;0.00;;;;;;;;;;7372103;19;20140;-71
2023/06/28 01:17:45;;;;;;;0.00;0.00;;;;;;;;;;7371432;19;20145;-71
2023/06/28 01:20:14;;;;;;;0.03;0.03;;;;;;;;;;7372627;19;20164;-71
2023/06/28 01:22:44;;;;;;;0.00;0.00;;;;;;;;;;7366801;19;20181;-72
2023/06/28 01:25:15;;;;;;;0.10;0.10;;;;;;;;;;7367989;19;20603;-70
2023/06/28 01:27:44;;;;;;;0.00;0.00;;;;;;;;;;7371630;19;20148;-71
2023/06/28 01:30:15;;;;;;;0.00;0.00;;;;;;;;;;7371819;19;20158;-72
2023/06/28 01:32:45;;;;;;;0.00;0.00;;;;;;;;;;7366499;19;20180;-72
2023/06/28 01:35:14;;;;;;;0.00;0.00;;;;;;;;;;7369904;19;20157;-72
2023/06/28 01:37:43;;;;;;;0.00;0.00;;;;;;;;;;7370407;19;20160;-72
2023/06/28 01:40:16;;;;;;;0.00;0.00;;;;;;;;;;7370796;19;20152;-72
2023/06/28 01:42:45;;;;;;;0.00;0.00;;;;;;;;;;7370520;19;20207;-71
2023/06/28 01:45:15;;;;;;;0.00;0.00;;;;;;;;;;7370501;19;20157;-71
2023/06/28 01:47:44;;;;;;;0.00;0.00;;;;;;;;;;7371279;19;20144;-72
2023/06/28 01:50:17;;;;;;;0.00;0.00;;;;;;;;;;7369221;19;20148;-72
2023/06/28 01:52:46;;;;;;;0.00;0.00;;;;;;;;;;7368272;19;20183;-73
2023/06/28 01:55:18;;;;;;;0.00;0.00;;;;;;;;;;7365278;19;20155;-73
2023/06/28 01:57:47;;;;;;;0.00;0.00;;;;;;;;;;7371921;19;20176;-71
2023/06/28 02:00:17;;;;;;;0.00;0.00;;;;;;;;;;7369143;19;20624;-72
2023/06/28 02:02:46;;;;;;;0.00;0.00;;;;;;;;;;7372244;19;20197;-71
2023/06/28 02:05:15;;;;;;;0.00;0.00;;;;;;;;;;7364940;19;20180;-71
2023/06/28 02:07:46;;;;;;;0.00;0.00;;;;;;;;;;7369085;19;20149;-70
2023/06/28 02:10:15;;;;;;;0.00;0.00;;;;;;;;;;7369097;19;20182;-71
2023/06/28 02:12:46;;;;;;;0.00;0.00;;;;;;;;;;7368404;19;20214;-71
2023/06/28 02:15:15;;;;;;;0.00;0.00;;;;;;;;;;7366022;19;20163;-73
2023/06/28 02:17:44;;;;;;;0.00;0.00;;;;;;;;;;7368775;19;20164;-71
2023/06/28 02:20:14;;;;;;;0.00;0.00;;;;;;;;;;7366635;19;20152;-72
2023/06/28 02:22:43;;;;;;;0.00;0.00;;;;;;;;;;7366865;19;20211;-74
2023/06/28 02:25:12;;;;;;;0.00;0.00;;;;;;;;;;7366041;19;20186;-71
2023/06/28 02:27:43;;;;;;;0.00;0.00;;;;;;;;;;7370444;19;20163;-73
2023/06/28 02:30:15;;;;;;;0.00;0.00;;;;;;;;;;7369775;19;20150;-71
2023/06/28 02:32:45;;;;;;;0.00;0.00;;;;;;;;;;7366789;19;20180;-71
2023/06/28 02:35:16;;;;;;;0.00;0.00;;;;;;;;;;7365956;19;20244;-73
2023/06/28 02:37:45;;;;;;;0.00;0.00;;;;;;;;;;7366294;19;20161;-71
2023/06/28 02:40:14;;;;;;;0.00;0.00;;;;;;;;;;7368713;19;20152;-72
2023/06/28 02:42:43;;;;;;;0.10;0.10;;;;;;;;;;7368658;19;20188;-73
2023/06/28 02:45:15;;;;;;;0.00;0.00;;;;;;;;;;7368331;19;20153;-71
2023/06/28 02:47:45;;;;;;;0.00;0.00;;;;;;;;;;7367417;19;20161;-71
2023/06/28 02:50:14;;;;;;;0.10;0.10;;;;;;;;;;7370322;19;20152;-73
2023/06/28 02:53:04;;;;;;;0.00;0.00;;;;;;;;;;7366699;19;20244;-73
2023/06/28 02:55:33;;;;;;;0.00;0.00;;;;;;;;;;7370684;19;20152;-72
2023/06/28 02:58:06;;;;;;;0.10;0.10;;;;;;;;;;7368609;19;20204;-72
2023/06/28 03:00:40;;;;;;;0.00;0.00;;;;;;;;;;7370166;19;20177;-72
2023/06/28 03:03:13;;;;;;;0.00;0.00;;;14.50;99.90;;;;;;7365872;19;20180;-74
2023/06/28 03:05:44;;;;;;;0.00;0.00;;;14.20;99.90;;;;;;7369537;19;20160;-71
2023/06/28 03:08:13;;;;;;;0.00;0.00;;;14.20;99.90;;;;;;7364694;19;20163;-71
2023/06/28 03:10:44;;;;;;;0.00;0.00;;;14.20;99.90;;;;;;7369439;19;20173;-69
2023/06/28 03:13:13;;;;;;;0.00;0.00;;;14.20;99.90;;;;;;7368705;19;20180;-71
2023/06/28 03:15:45;;;;;;;0.00;0.00;;;14.20;99.90;;;;;;7377740;19;20139;-71
2023/06/28 03:18:17;;;;;;;0.00;0.00;;;14.20;99.90;;;;;;7371634;19;20163;-69
2023/06/28 03:20:46;;;;;;;0.00;0.00;;;14.10;99.90;;;;;;7374401;19;20168;-70
2023/06/28 03:23:15;;;;;;;0.00;0.00;;;14.20;99.90;;;;;;7371845;19;20176;-71
2023/06/28 03:25:44;;;;;;;0.00;0.00;;;14.20;99.90;;;;;;7375965;19;20529;-73
2023/06/28 03:28:16;;;;;;;0.00;0.00;;;14.10;99.90;;;;;;7375720;19;20149;-71
2023/06/28 03:30:47;;;;;;;0.10;0.10;;;14.20;99.90;;;;;;7376928;19;20196;-71
2023/06/28 03:33:16;;;;;;;0.00;0.00;;;14.10;99.90;;;;;;7371346;19;20188;-71
2023/06/28 03:35:45;;;;;;;0.10;0.10;;;14.10;99.90;;;;;;7374645;19;20156;-71
2023/06/28 03:38:14;;;;;;;0.10;0.10;;;14.10;99.90;;;;;;7373583;19;20171;-71
2023/06/28 03:40:44;;;;;;;0.00;0.00;;;14.20;99.90;;;;;;7375392;19;20178;-71
2023/06/28 03:43:12;;;;;;;0.10;0.10;;;14.30;99.90;;;;;;7372171;19;20188;-70
2023/06/28 03:45:41;;;;;;;0.00;0.00;;;14.40;99.90;;;;;;7374240;19;20164;-72
2023/06/28 03:48:14;;;;;;;0.00;0.00;;;14.40;99.90;;;;;;7375338;19;20181;-73
2023/06/28 03:50:43;;;;;;;0.10;0.10;;;14.70;99.90;;;;;;7375390;19;20245;-70
2023/06/28 03:53:12;;;;;;;0.00;0.00;;;14.80;99.90;;;;;;7372820;19;20180;-73
2023/06/28 03:55:41;;;;;;;0.10;0.10;;;14.90;99.90;;;;;;7375431;19;20161;-72
2023/06/28 03:58:11;;;;;;;0.10;0.10;;;15.00;99.90;;;;;;7372434;19;20152;-71
2023/06/28 04:00:41;;;;;;;0.00;0.00;;;15.10;99.90;;;;;;7372603;19;20216;-73
2023/06/28 04:03:13;;;;;;;0.00;0.00;;;15.20;99.90;;;;;;7370524;19;20184;-73
2023/06/28 04:05:42;;;;;;;0.10;0.10;;;15.30;99.90;;;;;;7375068;19;20173;-73
2023/06/28 04:08:11;;;;;;;0.07;0.07;;;15.40;99.90;;;;;;7372883;19;20147;-71
2023/06/28 04:10:40;;;;;;;0.00;0.00;;;15.50;99.90;;;;;;7374282;19;20153;-72
2023/06/28 04:13:08;;;;;;;0.07;0.07;;;15.60;99.90;;;;;;7371019;19;20172;-71
2023/06/28 04:15:37;;;;;;;0.00;0.00;;;15.70;99.90;;;;;;7375069;19;20711;-74
2023/06/28 04:18:06;;;;;;;0.10;0.10;;;15.80;99.90;;;;;;7374822;19;20152;-74
2023/06/28 04:20:37;;;;;;;0.10;0.10;;;15.90;99.90;;;;;;7375233;19;20148;-75
2023/06/28 04:23:07;;;;;;;0.07;0.07;;;16.10;99.90;;;;;;7369718;19;20184;-75
2023/06/28 04:25:37;;;;;;;0.00;0.00;;;16.10;99.90;;;;;;7379699;19;20149;-75
2023/06/28 04:28:06;;;;;;;0.00;0.00;;;16.10;99.90;;;;;;7377221;19;20219;-76
2023/06/28 04:30:35;;;;;;;0.00;0.00;;;16.30;99.90;;;;;;7379094;19;20148;-76
2023/06/28 04:33:05;;;;;;;0.10;0.10;;;16.30;99.90;;;;;;7372601;19;20180;-77
2023/06/28 04:35:37;;;;;;;0.00;0.00;;;16.50;99.90;;;;;;7378268;19;20156;-77
2023/06/28 04:38:07;;;;;;;0.00;0.00;;;16.40;99.90;;;;;;7375552;19;20152;-76
2023/06/28 04:40:36;;;;;;;0.00;0.00;;;16.70;99.90;;;;;;7376094;19;20144;-76
2023/06/28 04:43:10;;;;;;;0.00;0.00;;;16.70;99.90;;;;;;7370956;19;20176;-76
2023/06/28 04:45:39;;;;;;;0.00;0.00;;;16.90;99.90;;;;;;7375693;19;20172;-73
2023/06/28 04:48:09;;;;;;;0.00;0.00;;;16.90;99.90;;;;;;7373587;19;20188;-72
2023/06/28 04:50:41;;;;;;;0.00;0.00;;;17.30;99.90;;;;;;7373064;19;20166;-71
2023/06/28 04:53:10;;;;;;;0.00;0.00;;;17.10;99.90;;;;;;7370994;19;20184;-72
2023/06/28 04:55:38;;;;;;;0.00;0.00;;;17.50;99.90;;;;;;7373935;19;20217;-72
2023/06/28 04:58:08;;;;;;;0.00;0.00;;;17.50;99.90;;;;;;7372587;19;20167;-74
2023/06/28 05:00:37;;;;;;;0.00;0.00;;;17.60;99.90;;;;;;7368471;19;20145;-72
2023/06/28 05:03:06;;;;;;;0.00;0.00;;;17.70;99.90;;;;;;7362662;19;20204;-73
2023/06/28 05:05:35;;;;;;;0.00;0.00;;;17.70;99.90;;;;;;7368946;19;20149;-72
2023/06/28 05:08:07;;;;;;;0.00;0.00;;;18.00;99.90;;;;;;7372442;19;20157;-72
2023/06/28 05:10:36;;;;;;;0.10;0.10;;;18.10;99.90;;;;;;7374758;19;20164;-72
2023/06/28 05:13:04;;;;;;;0.00;0.00;;;18.20;99.90;;;;;;7370264;19;20263;-71
2023/06/28 05:15:34;;;;;;;0.00;0.00;;;;;;;;;;7372545;19;20149;-73
2023/06/28 05:18:03;;;;;;;0.00;0.00;;;;;;;;;;7373104;19;20640;-71
2023/06/28 05:20:32;;;;;;;0.00;0.00;;;;;;;;;;7371870;19;20153;-73
2023/06/28 05:23:14;;;;;;;0.00;0.00;;;19.10;99.90;;;;;;7370557;19;20172;-71
2023/06/28 05:25:44;;;;;;;0.00;0.00;;;18.80;99.90;;;;;;7373946;19;20156;-71
2023/06/28 05:28:15;;;;;;;0.00;0.00;;;;;;;;;;7372233;19;20149;-72
2023/06/28 05:30:44;;;;;;;0.00;0.00;;;;;;;;;;7373059;19;20156;-73
2023/06/28 05:33:14;;;;;;;0.00;0.00;;;;;;;;;;7368294;19;20210;-70
2023/06/28 05:35:43;;;;;;;0.00;0.00;;;;;;;;;;7371208;19;20185;-73
2023/06/28 05:38:15;;;;;;;0.00;0.00;;;;;;;;;;7370750;19;20228;-72
2023/06/28 05:40:44;;;;;;;0.00;0.00;;;19.40;99.90;;;;;;7369293;19;20149;-72
2023/06/28 05:43:12;;;;;;;0.00;0.00;;;19.50;99.90;;;;;;7364187;19;20180;-70
2023/06/28 05:45:42;;;;;;;0.00;0.00;;;;;;;;;;7370147;19;20160;-73
2023/06/28 05:48:12;;;;;;;0.00;0.00;;;;;;;;;;7368580;19;20221;-73
2023/06/28 05:50:42;;;;;;;0.00;0.00;;;;;;;;;;7370095;19;20152;-72
2023/06/28 05:53:11;;;;;;;0.00;0.00;;;;;;;;;;7366006;19;20185;-71
2023/06/28 05:55:43;;;;;;;0.00;0.00;;;;;;;;;;7369691;19;20149;-74
2023/06/28 05:58:12;;;;;;;0.00;0.00;;;;;;;;;;7371414;19;20156;-71
2023/06/28 06:00:41;;;;;;;0.00;0.00;;;;;;;;;;7371043;19;20145;-71
2023/06/28 06:03:10;;;;;;;0.00;0.00;;;;;;;;;;7367888;19;20172;-71
2023/06/28 06:05:39;;;;;;;0.00;0.00;;;20.30;99.90;;;;;;7371804;19;20155;-71
2023/06/28 06:08:08;;;;;;;0.00;0.00;;;;;;;;;;7372397;19;20159;-72
2023/06/28 06:10:37;;;;;;;0.00;0.00;;;20.80;99.90;;;;;;7372978;19;20159;-71
2023/06/28 06:13:09;;;;;;;0.00;0.00;;;;;;;;;;7370086;19;20172;-74
2023/06/28 06:15:38;;;;;;;0.00;0.00;;;;;;;;;;7372187;19;20152;-72
2023/06/28 06:18:07;;;;;;;0.00;0.00;;;;;;;;;;7371690;19;20149;-71
2023/06/28 06:20:37;;;;;;;0.00;0.00;;;;;;;;;;7371788;19;20172;-70
2023/06/28 06:23:05;;;;;;;0.00;0.00;;;;;;;;;;7368810;19;20192;-73
2023/06/28 06:25:34;;;;;;;0.00;0.00;;;;;;;;;;7371501;19;20145;-72
2023/06/28 06:28:04;;;;;;;0.00;0.00;;;;;;;;;;7371288;19;20144;-71
2023/06/28 06:30:35;;;;;;;0.00;0.00;;;;;;;;;;7372584;19;20204;-72
2023/06/28 06:33:04;;;;;;;0.00;0.00;;;;;;;;;;7368612;19;20180;-72
2023/06/28 06:35:34;;;;;;;0.00;0.00;;;;;;;;;;7370275;19;20588;-73
2023/06/28 06:38:02;;;;;;;0.00;0.00;;;21.90;99.90;;;;;;7371480;19;20148;-72
2023/06/28 06:40:31;;;;;;;0.00;0.00;;;21.80;99.90;;;;;;7370047;19;20157;-71
2023/06/28 06:43:00;;;;;;;0.00;0.00;;;21.90;99.90;;;;;;7368184;19;20176;-71
2023/06/28 06:45:29;;;;;;;0.00;0.00;;;21.80;99.90;;;;;;7369911;19;20148;-73
2023/06/28 06:48:01;;;;;;;0.00;0.00;;;22.10;99.90;;;;;;7369861;19;20160;-73
2023/06/28 06:50:30;;;;;;;0.00;0.00;;;22.60;99.90;;;;;;7370565;19;20157;-71
2023/06/28 06:52:58;;;;;;;0.00;0.00;;;22.40;99.90;;;;;;7369361;19;20176;-72
2023/06/28 06:55:27;;;;;;;0.00;0.00;;;22.60;99.90;;;;;;7368366;19;20149;-71
2023/06/28 06:57:56;;;;;;;0.00;0.00;;;22.30;99.90;;;;;;7371045;19;20149;-73
2023/06/28 07:00:25;;;;;;;0.00;0.00;;;22.20;99.90;;;;;;7369826;19;20152;-74
2023/06/28 07:02:54;;;;;;;0.00;0.00;;;22.00;99.90;;;;;;7369197;19;20176;-71
2023/06/28 07:05:25;;;;;;;0.00;0.00;;;22.10;99.90;;;;;;7368723;19;20136;-71
2023/06/28 07:07:54;;;;;;;0.00;0.00;;;;;;;;;;7370738;19;20152;-73
2023/06/28 07:10:23;;;;;;;0.00;0.00;;;;;;;;;;7368855;19;20806;-72
2023/06/28 07:12:53;;;;;;;0.00;0.00;;;22.60;99.90;;;;;;7368721;19;20193;-70
2023/06/28 07:15:22;;;;;;;0.00;0.00;;;22.70;99.90;;;;;;7367567;19;20188;-72
2023/06/28 07:17:50;;;;;;;0.00;0.00;;;22.70;99.90;;;;;;7370838;19;20148;-73
2023/06/28 07:20:19;;;;;;;0.00;0.00;;;22.40;99.90;;;;;;7369500;19;20153;-71
2023/06/28 07:22:51;;;;;;;0.00;0.00;;;22.30;99.90;;;;;;7369431;19;20180;-71
2023/06/28 07:25:20;;;;;;;0.00;0.00;;;22.50;99.90;;;;;;7368129;19;20149;-71
2023/06/28 07:27:49;;;;;;;0.00;0.00;;;22.40;99.90;;;;;;7369831;19;20149;-74
2023/06/28 07:30:18;;;;;;;0.00;0.00;;;22.50;99.90;;;;;;7370559;19;20158;-73
2023/06/28 07:32:47;;;;;;;0.00;0.00;;;22.30;99.90;;;;;;7368978;19;20185;-71
2023/06/28 07:35:15;;;;;;;0.00;0.00;;;22.30;99.90;;;;;;7368559;19;20157;-71
2023/06/28 07:37:44;;;;;;;0.00;0.00;;;22.20;99.90;;;;;;7370813;19;20148;-72
2023/06/28 07:40:16;;;;;;;0.00;0.00;;;22.40;99.90;;;;;;7367736;19;20160;-72
2023/06/28 07:42:45;;;;;;;0.00;0.00;;;22.60;99.90;;;;;;7364584;19;20177;-72
2023/06/28 07:45:14;;;;;;;0.00;0.00;;;22.80;99.90;;;;;;7368681;19;20149;-73
2023/06/28 07:47:43;;;;;;;0.00;0.00;;;;;;;;;;7369674;19;20149;-72
2023/06/28 07:50:12;;;;;;;0.00;0.00;;;;;;;;;;7369838;19;20212;-71
2023/06/28 07:52:42;;;;;;;0.00;0.00;;;;;;;;;;7368863;19;20180;-74
2023/06/28 07:55:11;;;;;;;0.00;0.00;;;;;;;;;;7369212;19;20149;-71
2023/06/28 07:57:43;;;;;;;0.00;0.00;;;;;;;;;;7369835;19;20149;-71
2023/06/28 08:00:13;;;;;;;0.00;0.00;;;;;;;;;;7374669;19;20148;-72
2023/06/28 08:02:42;;;;;;;0.00;0.00;;;;;;;;;;7377790;19;20148;-71
2023/06/28 08:05:11;;;;;;;0.00;0.00;;;;;;;;;;7375151;19;20173;-71
2023/06/28 08:07:40;;;;;;;0.00;0.00;;;;;;;;;;7376213;19;20174;-71
2023/06/28 08:10:10;;;;;;;0.00;0.00;;;;;;;;;;7375782;19;20157;-71
2023/06/28 08:12:39;;;;;;;0.00;0.00;;;;;;;;;;7373788;19;20173;-71
2023/06/28 08:15:11;;;;;;;0.00;0.00;;;;;;;;;;7374357;19;20161;-72
2023/06/28 08:17:55;;;;;;;0.00;0.00;;;24.90;99.90;;;;;;7370097;19;20136;-70
2023/06/28 08:20:35;;;;;;;0.00;0.00;;;24.90;99.90;;;;;;7373151;19;20157;-70
2023/06/28 08:23:04;;;;;;;0.00;0.00;;;24.90;99.90;;;;;;7372451;19;20188;-71
2023/06/28 08:25:32;;;;;;;0.00;0.00;;;24.90;99.90;;;;;;7375020;19;20148;-71
2023/06/28 08:28:01;;;;;;;0.00;0.00;;;;;;;;;;7375567;19;20149;-72
2023/06/28 08:30:34;;;;;;;0.00;0.00;;;24.80;99.90;;;;;;7375903;19;20156;-72
2023/06/28 08:33:03;;;;;;;0.00;0.00;;;;;;;;;;7371245;19;20176;-71
2023/06/28 08:35:32;;;;;;;0.00;0.00;;;;;;;;;;7374872;19;20156;-71
2023/06/28 08:38:00;;;;;;;0.00;0.00;;;24.30;99.90;;;;;;7375146;19;20149;-71
2023/06/28 08:40:30;;;;;;;0.00;0.00;;;24.30;99.90;;;;;;7371134;19;20145;-72
2023/06/28 08:43:02;;;;;;;0.00;0.00;;;;;;;;;;7367378;19;20207;-70
2023/06/28 08:45:35;;;;;;;0.00;0.00;;;24.40;99.90;;;;;;7376229;19;20236;-72
2023/06/28 08:48:04;;;;;;;0.00;0.00;;;24.30;99.90;;;;;;7375916;19;20157;-72
2023/06/28 08:50:34;;;;;;;0.00;0.00;;;24.20;99.90;;;;;;7377557;19;20153;-71
2023/06/28 08:53:05;;;;;;;0.00;0.00;;;24.10;99.90;;;;;;7374870;19;20173;-70
2023/06/28 08:55:34;;;;;;;0.00;0.00;;;23.90;99.90;;;;;;7376593;19;20163;-72
2023/06/28 08:58:04;;;;;;;0.00;0.00;;;23.80;99.90;;;;;;7377836;19;20144;-70
2023/06/28 09:00:36;;;;;;;0.00;0.00;;;23.50;99.90;;;;;;7375708;19;20163;-73
2023/06/28 09:03:05;;;;;;;0.00;0.00;;;23.50;99.90;;;;;;7374776;19;20180;-70
2023/06/28 09:05:34;;;;;;;0.00;0.00;;;23.50;99.90;;;;;;7376486;19;20160;-70
2023/06/28 09:08:04;;;;;;;0.00;0.00;;;23.70;99.90;;;;;;7377838;19;20153;-70
2023/06/28 09:10:33;;;;;;;0.00;0.00;;;24.00;99.90;;;;;;7373821;19;20220;-72
2023/06/28 09:13:03;;;;;;;0.00;0.00;;;24.30;99.90;;;;;;7375622;19;20182;-73
2023/06/28 09:15:32;;;;;;;0.00;0.00;;;;;;;;;;7376620;19;20153;-71
2023/06/28 09:18:03;;;;;;;0.00;0.00;;;24.60;99.90;;;;;;7376969;19;20164;-71
2023/06/28 09:20:33;;;;;;;0.00;0.00;;;24.50;99.90;;;;;;7376167;19;20155;-71
2023/06/28 09:23:02;;;;;;;0.00;0.00;;;24.40;99.90;;;;;;7375361;19;20284;-71
2023/06/28 09:25:33;;;;;;;0.00;0.00;;;24.50;99.90;;;;;;7376297;19;20172;-73
2023/06/28 09:28:02;;;;;;;0.00;0.00;;;24.70;99.90;;;;;;7377334;19;20152;-72
2023/06/28 09:30:54;;;;;;;0.00;0.00;;;25.10;99.90;;;;;;7380375;19;20140;-74
2023/06/28 09:33:26;;;;;;;0.00;0.00;;;25.20;99.90;;;;;;7372996;19;20248;-72
2023/06/28 09:35:59;;;;;;;0.00;0.00;;;25.50;99.90;;;;;;7377764;19;20145;-70
2023/06/28 09:38:29;;;;;;;0.00;0.00;;;25.40;99.90;;;;;;7375724;19;20157;-71
2023/06/28 09:40:58;;;;;;;0.00;0.00;;;25.40;99.90;;;;;;7376963;19;20172;-71
2023/06/28 09:43:32;;;;;;;0.00;0.00;;;25.30;99.90;;;;;;7368866;19;20770;-71
2023/06/28 09:46:15;;;;;;;0.00;0.00;;;25.30;99.90;;;;;;7375598;19;20140;-71
2023/06/28 09:48:49;;;;;;;0.00;0.00;;;25.30;99.90;;;;;;7376150;19;20160;-74
2023/06/28 09:51:19;;;;;;;0.00;0.00;;;25.10;99.90;;;;;;7376915;19;20169;-70
2023/06/28 09:53:52;;;;;;;0.00;0.00;;;25.10;99.90;;;;;;7374860;19;20177;-71
2023/06/28 09:56:21;;;;;;;0.00;0.00;;;25.10;99.90;;;;;;7375428;19;20147;-73
2023/06/28 09:58:51;;;;;;;0.00;0.00;;;25.20;99.90;;;;;;7376659;19;20152;-73
2023/06/28 10:01:20;;;;;;;0.00;0.00;;;25.20;99.90;;;;;;7375165;19;20180;-73
2023/06/28 10:03:53;;;;;;;0.00;0.00;;;25.20;99.90;;;;;;7373373;19;20221;-72
2023/06/28 10:06:23;;;;;;;0.00;0.00;;;25.10;99.90;;;;;;7375994;19;20155;-72
2023/06/28 10:08:53;;;;;;;0.00;0.00;;;25.10;99.90;;;;;;7376652;19;20140;-73
2023/06/28 10:11:22;;;;;;;0.00;0.00;;;25.00;99.90;;;;;;7374849;19;20157;-72
2023/06/28 10:13:52;;;;;;;0.00;0.00;;;25.10;99.90;;;;;;7373694;19;20181;-71
2023/06/28 10:16:24;;;;;;;0.00;0.00;;;25.10;99.90;;;;;;7374586;19;20169;-72
2023/06/28 10:18:56;;;;;;;0.00;0.00;;;25.00;99.90;;;;;;7375679;19;20160;-72
2023/06/28 10:21:25;;;;;;;0.00;0.00;;;25.10;99.90;;;;;;7372625;19;20147;-71
2023/06/28 10:23:55;;;;;;;0.00;0.00;;;25.10;99.90;;;;;;7373818;19;20176;-75
2023/06/28 10:26:24;;;;;;;0.00;0.00;;;24.80;99.90;;;;;;7374401;19;20321;-71
2023/06/28 10:28:54;;;;;;;0.00;0.00;;;24.80;99.90;;;;;;7376308;19;20149;-72
2023/06/28 10:31:23;;;;;;;0.00;0.00;;;24.70;99.90;;;;;;7374437;19;20145;-72
2023/06/28 10:33:57;;;;;;;0.00;0.00;;;24.80;99.90;;;;;;7373248;19;20176;-72
2023/06/28 10:36:27;;;;;;;0.00;0.00;;;24.90;99.90;;;;;;7374292;19;20136;-71
2023/06/28 10:38:56;;;;;;;0.00;0.00;;;24.90;99.90;;;;;;7376798;19;20178;-71
2023/06/28 10:41:25;;;;;;;0.00;0.00;;;24.80;99.90;;;;;;7373397;19;20149;-72
2023/06/28 10:44:05;;;;;;;0.00;0.00;;;24.80;99.90;;;;;;7367899;19;20205;-72
2023/06/28 10:46:35;;;;;;;0.00;0.00;;;24.90;99.90;;;;;;7372604;19;20155;-71
2023/06/28 10:49:07;;;;;;;0.00;0.00;;;25.00;99.90;;;;;;7374166;19;20160;-71
2023/06/28 10:51:37;;;;;;;0.00;0.00;;;24.80;99.90;;;;;;7373203;19;20175;-72
2023/06/28 10:54:13;;;;;;;0.00;0.00;;;24.70;99.90;;;;;;7371033;19;20181;-70
2023/06/28 10:56:46;;;;;;;0.00;0.00;;;24.70;99.90;;;;;;7372840;19;20160;-72
2023/06/28 10:59:15;;;;;;;0.00;0.00;;;24.80;99.90;;;;;;7374672;19;20156;-72
2023/06/28 11:01:55;;;;;;;0.00;0.00;;;24.90;99.90;;;;;;7370930;19;20145;-72
2023/06/28 11:04:28;;;;;;;0.00;0.00;;;25.10;99.90;;;;;;7372867;19;20156;-72
2023/06/28 11:07:12;;;;;;;0.00;0.00;;;25.20;99.90;;;;;;7373838;19;20174;-71
2023/06/28 11:09:41;;;;;;;0.00;0.00;;;25.30;99.90;;;;;;7373891;19;20192;-72
2023/06/28 11:12:16;;;;;;;0.00;0.00;;;25.30;99.90;;;;;;7372072;19;20184;-72
2023/06/28 11:14:44;;;;;;;0.00;0.00;;;25.50;99.90;;;;;;7371363;19;20160;-71
2023/06/28 11:17:16;;;;;;;0.00;0.00;;;25.60;99.90;;;;;;7373644;19;20624;-71
2023/06/28 11:19:48;;;;;;;0.00;0.00;;;25.70;99.90;;;;;;7372545;19;20224;-72
2023/06/28 11:22:18;;;;;;;0.00;0.00;;;25.60;99.90;;;;;;7372608;19;20742;-74
2023/06/28 11:24:47;;;;;;;0.00;0.00;;;25.70;99.90;;;;;;7372011;19;20156;-73
2023/06/28 11:27:17;;;;;;;0.00;0.00;;;25.80;99.90;;;;;;7372608;19;20160;-72
2023/06/28 11:29:56;;;;;;;0.00;0.00;;;25.90;99.90;;;;;;7373863;19;20144;-73
2023/06/28 11:32:26;;;;;;;0.00;0.00;;;26.00;99.90;;;;;;7371335;19;20675;-73
2023/06/28 11:35:00;;;;;;;0.00;0.00;;;26.10;99.90;;;;;;7377689;19;20208;-73
2023/06/28 11:37:30;;;;;;;0.00;0.00;;;26.00;99.90;;;;;;7379437;19;20548;-72
2023/06/28 11:40:02;;;;;;;0.00;0.00;;;25.90;99.90;;;;;;7380910;19;20216;-71
2023/06/28 11:42:31;;;;;;;0.00;0.00;;;25.80;99.90;;;;;;7373152;19;20719;-72
2023/06/28 11:45:00;;;;;;;0.00;0.00;;;25.80;99.90;;;;;;7379085;19;20873;-72
2023/06/28 11:47:29;;;;;;;0.00;0.00;;;25.90;99.90;;;;;;7380291;19;20152;-72
2023/06/28 11:50:01;;;;;;;0.00;0.00;;;25.90;99.90;;;;;;7380929;19;20156;-72
2023/06/28 11:52:30;;;;;;;0.00;0.00;;;26.10;99.90;;;;;;7377885;19;20180;-72
2023/06/28 11:55:00;;;;;;;0.00;0.00;;;26.00;99.90;;;;;;7378850;19;20221;-74
2023/06/28 11:57:29;;;;;;;0.00;0.00;;;25.90;99.90;;;;;;7379055;19;20183;-73
2023/06/28 11:59:58;;;;;;;0.00;0.00;;;25.90;99.90;;;;;;7380460;19;20153;-71
2023/06/28 12:02:28;;;;;;;0.00;0.00;;;25.90;99.90;;;;;;7378395;19;20211;-72
2023/06/28 12:05:03;;;;;;;0.00;0.00;;;25.90;99.90;;;;;;7378583;19;20144;-72
2023/06/28 12:07:32;;;;;;;0.00;0.00;;;25.90;99.90;;;;;;7378817;19;20339;-72
2023/06/28 12:10:01;;;;;;;0.00;0.00;;;25.90;99.90;;;;;;7379973;19;20173;-72
2023/06/28 12:12:38;;;;;;;0.00;0.00;;;25.80;99.90;;;;;;7376991;19;20188;-70
2023/06/28 12:15:08;;;;;;;0.00;0.00;;;25.80;99.90;;;;;;7376464;19;20152;-70
2023/06/28 12:17:40;;;;;;;0.00;0.00;;;25.60;99.90;;;;;;7377107;19;20161;-71
2023/06/28 12:20:14;;;;;;;0.00;0.00;;;25.40;99.90;;;;;;7376174;19;20157;-70
2023/06/28 12:22:44;;;;;;;0.00;0.00;;;25.30;99.90;;;;;;7374431;19;20203;-71
2023/06/28 12:25:13;;;;;;;0.00;0.00;;;25.30;99.90;;;;;;7375377;19;20141;-70
2023/06/28 12:27:43;;;;;;;0.00;0.00;;;25.40;99.90;;;;;;7378433;19;20153;-71
2023/06/28 12:30:13;;;;;;;0.00;0.00;;;25.40;99.90;;;;;;7378226;19;20157;-70
2023/06/28 12:32:46;;;;;;;0.00;0.00;;;25.40;99.90;;;;;;7376705;19;20172;-71
2023/06/28 12:35:29;;;;;;;0.00;0.00;;;25.30;99.90;;;;;;7376761;19;20153;-72
2023/06/28 12:38:01;;;;;;;0.00;0.00;;;25.30;99.90;;;;;;7378568;19;20148;-70
2023/06/28 12:40:32;;;;;;;0.00;0.00;;;25.30;99.90;;;;;;7379413;19;20218;-70
2023/06/28 12:43:14;;;;;;;0.00;0.00;;;25.20;99.90;;;;;;7372633;19;20188;-72
2023/06/28 12:45:48;;;;;;;0.00;0.00;;;25.00;99.90;;;;;;7376909;19;20157;-71
2023/06/28 12:48:17;;;;;;;0.00;0.00;;;24.90;99.90;;;;;;7378093;19;20153;-71
2023/06/28 12:50:50;;;;;;;0.00;0.00;;;24.90;99.90;;;;;;7376614;19;20152;-71
2023/06/28 12:53:18;;;;;;;0.00;0.00;;;24.90;99.90;;;;;;7374694;19;20195;-71
2023/06/28 12:55:47;;;;;;;0.00;0.00;;;24.90;99.90;;;;;;7376613;19;20152;-70
2023/06/28 12:58:19;;;;;;;0.00;0.00;;;25.00;99.90;;;;;;7377344;19;20144;-72
2023/06/28 13:00:48;;;;;;;0.00;0.00;;;25.00;99.90;;;;;;7378115;19;20148;-71
2023/06/28 13:03:17;;;;;;;0.00;0.00;;;24.90;99.90;;;;;;7373887;19;20180;-70
2023/06/28 13:05:49;;;;;;;0.00;0.00;;;24.90;99.90;;;;;;7375178;19;20164;-71
2023/06/28 13:08:19;;;;;;;0.00;0.00;;;24.80;99.90;;;;;;7377751;19;20145;-71
2023/06/28 13:10:48;;;;;;;0.00;0.00;;;24.80;99.90;;;;;;7375302;19;20162;-69
2023/06/28 13:13:17;;;;;;;0.00;0.00;;;24.70;99.90;;;;;;7373177;19;20190;-72
2023/06/28 13:15:46;;;;;;;0.00;0.00;;;24.70;99.90;;;;;;7374865;19;20153;-71
2023/06/28 13:18:14;;;;;;;0.00;0.00;;;24.50;99.90;;;;;;7376634;19;20151;-73
2023/06/28 13:20:44;;;;;;;0.00;0.00;;;24.50;99.90;;;;;;7376697;19;20227;-70
2023/06/28 13:23:15;;;;;;;0.00;0.00;;;24.50;99.90;;;;;;7373615;19;20195;-72
2023/06/28 13:25:44;;;;;;;0.00;0.00;;;24.50;99.90;;;;;;7375671;19;20173;-71
2023/06/28 13:28:15;;;;;;;0.00;0.00;;;24.50;99.90;;;;;;7376485;19;20157;-71
2023/06/28 13:30:44;;;;;;;0.00;0.00;;;24.40;99.90;;;;;;7375832;19;20163;-70
2023/06/28 13:33:12;;;;;;;0.00;0.00;;;24.30;99.90;;;;;;7373647;19;20176;-73
2023/06/28 13:35:41;;;;;;;0.00;0.00;;;24.20;99.90;;;;;;7375343;19;20157;-71
2023/06/28 13:38:10;;;;;;;0.00;0.00;;;24.20;99.90;;;;;;7375571;19;20176;-71
2023/06/28 13:40:41;;;;;;;0.00;0.00;;;24.30;99.90;;;;;;7375534;19;20136;-71